1967 Tropical Cyclone DULCIE (1967072S15157)


IBTrACS version v04r00. Visit IBTrACS website for data access.
Please direct all questions to the IBTrACS Q and A forum

Storm track - Intensity - Wind Radii - Intensity Data - Source Data - All data

Summary Information

Storm ID 1967072S15157
Start Mar 12 20Z
Max Intensity 35 kt (Mar 16 06Z), 996 mb (Mar 14 05Z)
End Mar 17 08Z
ATCF IDs ,SH231967
Track status Best track data.

Storm track plot

Map of storm track

Intensity plots

Map of storm track

Radial wind information

No radial wind information for this storm


Position and Intensity Table

BASIN ISO_TIME_________ NATURE LAT LON WMO PRES USA WIND BOM PRES DS824 WIND TD9636 WIND NEUMANN WIND NEUMANN PRES
degrees north degrees east mb kts mb kts kts kts mb
SP 1967-03-12 20:00:00 NR -15.00 156.50 20
SP 21:00:00 NR -15.03 156.39 20
SP 1967-03-13 00:00:00 TS -15.12 156.04 20 20 20 20
SP 02:00:00 TS -15.22 155.90 1000 20 1000 20 20 20
SP 03:00:00 TS -15.28 155.81 20 999 20 20 20
SP 05:00:00 TS -15.46 155.56 998 20 998 20 20 20
SP 06:00:00 TS -15.56 155.43 20 998 20 20 20
SP 08:00:00 TS -15.83 155.15 998 20 998 20 20 20
SP 09:00:00 TS -15.98 155.00 20 998 20 20 20
SP 11:00:00 TS -16.31 154.74 998 20 998 20 20 20
SP 12:00:00 TS -16.49 154.62 20 998 20 20 20
SP 14:00:00 TS -16.90 154.46 998 20 998 20 20 20
SP 15:00:00 TS -17.11 154.40 20 998 20 20 20
SP 17:00:00 TS -17.52 154.32 998 20 998 20 20 20
SP 18:00:00 TS -17.70 154.29 20 998 20 20 20
SP 20:00:00 TS -18.00 154.22 998 20 998 20 20 20
SP 21:00:00 TS -18.13 154.20 20 998 20 19 20
SP 23:00:00 TS -18.36 154.20 998 20 998 20 17 20
SP 1967-03-14 00:00:00 TS -18.47 154.23 20 998 20 16 20
SP 02:00:00 TS -18.68 154.33 998 16 998 16 15 18
SP 03:00:00 TS -18.77 154.39 15 997 15 14 17
SP 05:00:00 TS -18.94 154.53 996 11 996 11 12 15
SP 06:00:00 TS -19.03 154.60 10 996 10 11 15
SP 08:00:00 TS -19.21 154.73 996 10 996 10 10 15
SP 09:00:00 TS -19.29 154.80 10 996 10 10 15
SP 11:00:00 TS -19.43 154.95 996 10 996 10 12 15
SP 12:00:00 TS -19.49 155.02 10 996 10 13 15
SP 14:00:00 TS -19.63 155.15 996 13 996 13 15 16
SP 15:00:00 TS -19.70 155.21 15 996 15 15 17
SP 17:00:00 TS -19.83 155.33 996 18 996 18 17 19
SP 18:00:00 TS -19.89 155.40 20 996 20 18 20
SP 20:00:00 TS -20.02 155.57 996 20 996 20 20 20
SP 21:00:00 TS -20.09 155.66 20 996 20 19 20
SP 23:00:00 TS -20.22 155.82 996 20 996 20 18 20
SP 1967-03-15 00:00:00 TS -20.29 155.90 20 996 20 18 20
SP 02:00:00 TS -20.42 156.06 996 18 996 18 17 20
SP 03:00:00 TS -20.49 156.13 17 996 17 17 20
SP 05:00:00 TS -20.64 156.27 996 15 996 15 16 20
SP 06:00:00 TS -20.70 156.34 15 996 15 15 20
SP 08:00:00 TS -20.82 156.49 996 16 996 16 15 20
SP 09:00:00 TS -20.90 156.57 17 996 17 16 20
SP 11:00:00 TS -21.05 156.73 996 19 996 19 18 20
SP 12:00:00 TS -21.13 156.80 20 996 20 19 20
SP 14:00:00 TS -21.28 156.93 996 21 996 21 21 21
SP 15:00:00 TS -21.35 156.99 22 996 22 22 22
SP 17:00:00 TS -21.51 157.12 996 24 996 24 24 24
SP 18:00:00 TS -21.60 157.19 25 996 25 25 25
SP 20:00:00 TS -21.78 157.32 996 26 996 26 28 26
SP 21:00:00 TS -21.87 157.38 27 996 27 27 27
SP 23:00:00 TS -22.06 157.51 998 29 998 29 27 29
SP 1967-03-16 00:00:00 TS -22.16 157.58 30 998 30 27 30
SP 02:00:00 TS -22.38 157.70 998 30 998 30 26 31
SP 03:00:00 TS -22.49 157.78 30 998 30 26 32
SP 05:00:00 TS -22.75 157.97 998 30 998 30 25 34
SP 06:00:00 TS -22.89 158.06 30 998 30 25 35
SP 08:00:00 TS -23.20 158.27 998 30 998 30 25 35
SP 09:00:00 TS -23.37 158.46 30 998 30 35
SP 11:00:00 TS -23.71 158.89 998 30 998 30 35
SP 12:00:00 TS -23.89 159.09 30 998 30 35 996
SP 14:00:00 TS -24.24 159.50 998 30 998 30 35
SP 15:00:00 TS -24.42 159.73 30 998 30 35
SP 17:00:00 TS -24.80 160.20 1000 30 1000 30 35
SP 18:00:00 TS -25.00 160.42 30 1000 30 35
SP 20:00:00 TS -25.39 160.83 1000 30 1000 30 33
SP 21:00:00 TS -25.59 161.04 30 1000 30 32
SP 23:00:00 TS -26.00 161.45 1000 30 1000 30 30
SP 1967-03-17 00:00:00 TS -26.21 161.63 30 1000 30 30
SP 02:00:00 TS -26.65 161.98 1000 28 1000 28 28
SP 03:00:00 TS -26.87 162.14 27 1000 27 27
SP 05:00:00 TS -27.30 162.45 1000 25 1000 25 25
SP 06:00:00 TS -27.52 162.61 25 1000 25 25
SP 08:00:00 NR -28.00 163.00 1000 1000

Source Information

Agency Information
USA bsh231967.txt
TOKYO
CMA
HKO
NEWDELHI
REUNION
BOM IDCKMSTM0S.csv:Line=4771:DULCIE
NADI
WELLINGTON
DS824 s_hem.dat:1031:23P
TD9636 cons_worldwide_trop_cyclone_18710101-19891231-006:Line=7723
TD9635
NEUMANN tracks.sh:Storm=192:DULCIE:BSH2367:JTWC&BM560
MLC

All available IBTrACS Data

SEASON BASIN SUBBASIN ISO_TIME_________ NATURE LAT LON WMO PRES WMO AGENCY DIST2LAND LANDFALL IFLAG USA AGENCY USA ATCF_ID USA LAT USA LON USA WIND USA SSHS BOM LAT BOM LON BOM PRES DS824 LAT DS824 LON DS824 STAGE DS824 WIND TD9636 LAT TD9636 LON TD9636 STAGE TD9636 WIND NEUMANN LAT NEUMANN LON NEUMANN CLASS NEUMANN WIND NEUMANN PRES STORM SPEED STORM DIR
Year degrees north degrees east mb km km degrees north degrees east kts 1 degrees north degrees east mb degrees north degrees east kts degrees north degrees east kts degrees north degrees east kts mb kts degrees
1967 SP EA 1967-03-12 20:00:00 NR -15.00 156.50 683 683 __________O___ -1 -15.00 156.50 1 20 6 254
1967 SP EA 21:00:00 NR -15.03 156.39 689 689 __________P___ -1 -15.03 156.39 1 20 7 255
1967 SP EA 1967-03-13 00:00:00 TS -15.12 156.04 722 722 O________OP_O_ jtwc_sh SH231967 -15.10 156.00 20 -1 -15.10 156.00 TC 20 -15.14 156.07 1 20 -15.10 156.00 TC 20 6 248
1967 SP EA 02:00:00 TS -15.22 155.90 1000 bom 738 738 P_____O__PP_P_ SH231967 -15.24 155.80 20 -1 -15.00 156.50 1000 -15.24 155.80 TC 20 -15.24 155.86 1 20 -15.24 155.90 TC 20 6 234
1967 SP EA 03:00:00 TS -15.28 155.81 753 753 P_____P__PP_P_ SH231967 -15.32 155.70 20 -1 -15.08 156.21 999 -15.32 155.70 TC 20 -15.30 155.75 1 20 -15.32 155.82 TC 20 8 234
1967 SP EA 05:00:00 TS -15.46 155.56 998 bom 763 755 P_____O__PP_P_ SH231967 -15.49 155.50 20 -1 -15.30 155.70 998 -15.49 155.50 TC 20 -15.46 155.53 1 20 -15.49 155.58 TC 20 9 233
1967 SP EA 06:00:00 TS -15.56 155.43 756 749 O_____P__OP_O_ jtwc_sh SH231967 -15.60 155.40 20 -1 -15.45 155.50 998 -15.60 155.40 TC 20 -15.55 155.42 1 20 -15.60 155.40 TC 20 11 227
1967 SP EA 08:00:00 TS -15.83 155.15 998 bom 752 752 P_____O__PO_P_ SH231967 -15.85 155.19 20 -1 -15.80 155.20 998 -15.85 155.19 TC 20 -15.80 155.20 1 20 -15.85 154.91 TC 20 12 224
1967 SP EA 09:00:00 TS -15.98 155.00 762 762 P_____P__PP_P_ SH231967 -16.00 155.09 20 -1 -15.96 155.05 998 -16.00 155.09 TC 20 -15.95 155.09 1 20 -16.00 154.63 TC 20 12 219
1967 SP EA 11:00:00 TS -16.31 154.74 998 bom 766 745 P_____O__PP_P_ SH231967 -16.32 154.89 20 -1 -16.30 154.80 998 -16.32 154.89 TC 20 -16.29 154.87 1 20 -16.32 154.16 TC 20 13 215
1967 SP EA 12:00:00 TS -16.49 154.62 745 710 O_____P__OP_O_ jtwc_sh SH231967 -16.50 154.80 20 -1 -16.49 154.69 998 -16.50 154.80 TC 20 -16.48 154.76 1 20 -16.50 154.00 TC 20 13 204
1967 SP EA 14:00:00 TS -16.90 154.46 998 bom 710 689 P_____O__PP_P_ SH231967 -16.90 154.60 20 -1 -16.90 154.50 998 -16.90 154.60 TC 20 -16.87 154.57 1 20 -16.90 153.99 TC 20 13 199
1967 SP EA 15:00:00 TS -17.11 154.40 689 657 P_____P__PP_P_ SH231967 -17.11 154.51 20 -1 -17.14 154.42 998 -17.11 154.51 TC 20 -17.07 154.48 1 20 -17.11 154.05 TC 20 13 193
1967 SP EA 17:00:00 TS -17.52 154.32 998 bom 657 646 P_____O__PP_P_ SH231967 -17.51 154.36 20 -1 -17.60 154.30 998 -17.51 154.36 TC 20 -17.47 154.33 1 20 -17.51 154.23 TC 20 12 191
1967 SP EA 18:00:00 TS -17.70 154.29 646 612 O_____P__OP_O_ jtwc_sh SH231967 -17.70 154.30 20 -1 -17.76 154.25 998 -17.70 154.30 TC 20 -17.65 154.27 1 20 -17.70 154.30 TC 20 10 191
1967 SP EA 20:00:00 TS -18.00 154.22 998 bom 612 603 P_____O__PO_P_ SH231967 -18.01 154.21 20 -1 -18.00 154.20 998 -18.01 154.21 TC 20 -18.00 154.20 1 20 -18.01 154.27 TC 20 9 191
1967 SP EA 21:00:00 TS -18.13 154.20 603 585 P_____P__PP_P_ SH231967 -18.14 154.18 20 -1 -18.11 154.18 998 -18.14 154.18 TC 20 -18.14 154.19 1 19 -18.14 154.24 TC 20 7 0
1967 SP EA 23:00:00 TS -18.36 154.20 998 bom 577 577 P_____O__PP_P_ SH231967 -18.39 154.18 20 -1 -18.30 154.20 998 -18.39 154.18 TC 20 -18.39 154.20 1 17 -18.39 154.20 TC 20 7 176
1967 SP EA 1967-03-14 00:00:00 TS -18.47 154.23 568 558 O_____P__OP_O_ jtwc_sh SH231967 -18.50 154.20 20 -1 -18.41 154.25 998 -18.50 154.20 TC 20 -18.50 154.23 1 16 -18.50 154.20 TC 20 7 161
1967 SP EA 02:00:00 TS -18.68 154.33 998 bom 558 557 P_____O__PP_P_ SH231967 -18.73 154.29 16 -1 -18.60 154.40 998 -18.73 154.29 TC 16 -18.70 154.31 1 15 -18.73 154.29 TC 18 7 153
1967 SP EA 03:00:00 TS -18.77 154.39 557 556 P_____P__PP_P_ SH231967 -18.83 154.36 15 -1 -18.66 154.47 997 -18.83 154.36 TC 15 -18.80 154.36 1 14 -18.83 154.36 TC 17 7 144
1967 SP EA 05:00:00 TS -18.94 154.53 996 bom 556 548 P_____O__PP_P_ SH231967 -19.02 154.52 11 -1 -18.80 154.60 996 -19.02 154.52 TC 11 -18.97 154.48 1 12 -19.02 154.52 TC 15 7 143
1967 SP EA 06:00:00 TS -19.03 154.60 555 547 O_____P__OP_O_ jtwc_sh SH231967 -19.10 154.60 10 -1 -18.93 154.63 996 -19.10 154.60 TC 10 -19.05 154.55 1 11 -19.10 154.60 TC 15 7 146
1967 SP EA 08:00:00 TS -19.21 154.73 996 bom 547 547 P_____O__PO_P_ SH231967 -19.25 154.73 10 -1 -19.20 154.70 996 -19.25 154.73 TC 10 -19.20 154.70 1 10 -19.25 154.73 TC 15 6 143
1967 SP EA 09:00:00 TS -19.29 154.80 548 548 P_____P__PP_P_ SH231967 -19.31 154.80 10 -1 -19.28 154.79 996 -19.31 154.80 TC 10 -19.28 154.76 1 10 -19.31 154.80 TC 15 6 136
1967 SP EA 11:00:00 TS -19.43 154.95 996 bom 557 549 P_____O__PP_P_ SH231967 -19.44 154.93 10 -1 -19.40 155.00 996 -19.44 154.93 TC 10 -19.43 154.90 1 12 -19.44 154.93 TC 15 6 134
1967 SP EA 12:00:00 TS -19.49 155.02 549 549 O_____P__OP_O_ jtwc_sh SH231967 -19.50 155.00 10 -1 -19.47 155.08 996 -19.50 155.00 TC 10 -19.50 154.97 1 13 -19.50 155.00 TC 15 6 138
1967 SP EA 14:00:00 TS -19.63 155.15 996 bom 559 553 P_____O__PP_P_ SH231967 -19.63 155.13 13 -1 -19.60 155.20 996 -19.63 155.13 TC 13 -19.63 155.12 1 15 -19.63 155.13 TC 16 5 139
1967 SP EA 15:00:00 TS -19.70 155.21 553 553 P_____P__PP_P_ SH231967 -19.70 155.19 15 -1 -19.67 155.23 996 -19.70 155.19 TC 15 -19.69 155.20 1 15 -19.70 155.19 TC 17 5 139
1967 SP EA 17:00:00 TS -19.83 155.33 996 bom 555 555 P_____O__PP_P_ SH231967 -19.83 155.33 18 -1 -19.80 155.30 996 -19.83 155.33 TC 18 -19.82 155.36 1 17 -19.83 155.33 TC 19 5 137
1967 SP EA 18:00:00 TS -19.89 155.40 558 558 O_____P__OP_O_ jtwc_sh SH231967 -19.90 155.40 20 -1 -19.87 155.39 996 -19.90 155.40 TC 20 -19.88 155.44 1 18 -19.90 155.40 TC 20 6 131
1967 SP EA 20:00:00 TS -20.02 155.57 996 bom 570 564 P_____O__PO_P_ SH231967 -20.03 155.56 20 -1 -20.00 155.60 996 -20.03 155.56 TC 20 -20.00 155.60 1 20 -20.03 155.56 TC 20 6 130
1967 SP EA 21:00:00 TS -20.09 155.66 574 568 P_____P__PP_P_ SH231967 -20.10 155.65 20 -1 -20.07 155.67 996 -20.10 155.65 TC 20 -20.06 155.68 1 19 -20.10 155.65 TC 20 6 131
1967 SP EA 23:00:00 TS -20.22 155.82 996 bom 574 569 P_____O__PP_P_ SH231967 -20.23 155.82 20 -1 -20.20 155.80 996 -20.23 155.82 TC 20 -20.19 155.83 1 18 -20.23 155.82 TC 20 6 131
1967 SP EA 1967-03-15 00:00:00 TS -20.29 155.90 569 564 O_____P__OP_O_ jtwc_sh SH231967 -20.30 155.90 20 -1 -20.26 155.90 996 -20.30 155.90 TC 20 -20.26 155.91 1 18 -20.30 155.90 TC 20 6 131
1967 SP EA 02:00:00 TS -20.42 156.06 996 bom 569 559 P_____O__PP_P_ SH231967 -20.43 156.04 18 -1 -20.40 156.10 996 -20.43 156.04 TC 18 -20.38 156.06 1 17 -20.43 156.04 TC 20 6 134
1967 SP EA 03:00:00 TS -20.49 156.13 559 555 P_____P__PP_P_ SH231967 -20.50 156.10 17 -1 -20.50 156.17 996 -20.50 156.10 TC 17 -20.45 156.13 1 17 -20.50 156.10 TC 20 6 138
1967 SP EA 05:00:00 TS -20.64 156.27 996 bom 561 551 P_____O__PP_P_ SH231967 -20.63 156.23 15 -1 -20.70 156.30 996 -20.63 156.23 TC 15 -20.59 156.28 1 16 -20.63 156.23 TC 20 6 137
1967 SP EA 06:00:00 TS -20.70 156.34 551 548 O_____P__OP_O_ jtwc_sh SH231967 -20.70 156.30 15 -1 -20.74 156.36 996 -20.70 156.30 TC 15 -20.66 156.36 1 15 -20.70 156.30 TC 20 6 132
1967 SP EA 08:00:00 TS -20.82 156.49 996 bom 554 545 P_____O__PO_P_ SH231967 -20.83 156.46 16 -1 -20.80 156.50 996 -20.83 156.46 TC 16 -20.80 156.50 1 15 -20.83 156.46 TC 20 6 132
1967 SP EA 09:00:00 TS -20.90 156.57 551 542 P_____P__PP_P_ SH231967 -20.89 156.55 17 -1 -20.89 156.60 996 -20.89 156.55 TC 17 -20.87 156.57 1 16 -20.89 156.55 TC 20 6 135
1967 SP EA 11:00:00 TS -21.05 156.73 996 bom 540 540 P_____O__PP_P_ SH231967 -21.03 156.72 19 -1 -21.10 156.80 996 -21.03 156.72 TC 19 -21.02 156.70 1 18 -21.03 156.72 TC 20 6 137
1967 SP EA 12:00:00 TS -21.13 156.80 547 537 O_____P__OP_O_ jtwc_sh SH231967 -21.10 156.80 20 -1 -21.17 156.84 996 -21.10 156.80 TC 20 -21.10 156.77 1 19 -21.10 156.80 TC 20 6 141
1967 SP EA 14:00:00 TS -21.28 156.93 996 bom 537 537 P_____O__PP_P_ SH231967 -21.25 156.94 21 -1 -21.30 156.90 996 -21.25 156.94 TC 21 -21.25 156.90 1 21 -21.25 156.94 TC 21 6 141
1967 SP EA 15:00:00 TS -21.35 156.99 536 535 P_____P__PP_P_ SH231967 -21.33 157.01 22 -1 -21.36 156.96 996 -21.33 157.01 TC 22 -21.34 156.97 1 22 -21.33 157.01 TC 22 6 142
1967 SP EA 17:00:00 TS -21.51 157.12 996 bom 535 535 P_____O__PP_P_ SH231967 -21.51 157.14 24 -1 -21.50 157.10 996 -21.51 157.14 TC 24 -21.51 157.10 1 24 -21.51 157.14 TC 24 6 144
1967 SP EA 18:00:00 TS -21.60 157.19 535 527 O_____P__OP_O_ jtwc_sh SH231967 -21.60 157.20 25 -1 -21.60 157.17 996 -21.60 157.20 TC 25 -21.61 157.16 1 25 -21.60 157.20 TC 25 7 146
1967 SP EA 20:00:00 TS -21.78 157.32 996 bom 528 528 P_____O__PO_P_ SH231967 -21.79 157.33 26 -1 -21.80 157.30 996 -21.79 157.33 TC 26 -21.80 157.30 1 28 -21.79 157.33 TC 26 7 147
1967 SP EA 21:00:00 TS -21.87 157.38 529 522 P_____P__PP_P_ SH231967 -21.88 157.40 27 -1 -21.87 157.37 996 -21.88 157.40 TC 27 -21.89 157.35 1 27 -21.88 157.40 TC 27 7 147
1967 SP EA 23:00:00 TS -22.06 157.51 998 bom 523 523 P_____O__PP_P_ SH231967 -22.09 157.53 29 -1 -22.00 157.50 998 -22.09 157.53 TC 29 -22.09 157.45 1 27 -22.09 157.53 TC 29 7 148
1967 SP EA 1967-03-16 00:00:00 TS -22.16 157.58 525 519 O_____P__OP_O_ jtwc_sh SH231967 -22.20 157.60 30 -1 -22.09 157.55 998 -22.20 157.60 TC 30 -22.19 157.50 1 27 -22.20 157.60 TC 30 7 151
1967 SP EA 02:00:00 TS -22.38 157.70 998 bom 522 522 P_____O__PP_P_ SH231967 -22.41 157.71 30 -1 -22.30 157.70 998 -22.41 157.71 TC 30 -22.41 157.62 1 26 -22.41 157.71 TC 31 8 150
1967 SP EA 03:00:00 TS -22.49 157.78 525 519 P_____P__PP_P_ SH231967 -22.52 157.76 30 -1 -22.42 157.87 998 -22.52 157.76 TC 30 -22.52 157.69 1 26 -22.52 157.76 TC 32 9 146
1967 SP EA 05:00:00 TS -22.75 157.97 998 bom 527 522 P_____O__PP_P_ SH231967 -22.76 157.91 30 -1 -22.70 158.20 998 -22.76 157.91 TC 30 -22.77 157.85 1 25 -22.76 157.91 TC 34 10 148
1967 SP EA 06:00:00 TS -22.89 158.06 531 526 O_____P__OP_O_ jtwc_sh SH231967 -22.90 158.00 30 -1 -22.86 158.18 998 -22.90 158.00 TC 30 -22.91 157.95 1 25 -22.90 158.00 TC 35 11 148
1967 SP EA 08:00:00 TS -23.20 158.27 998 bom 536 531 P_____O__PO_P_ SH231967 -23.20 158.23 30 -1 -23.20 158.20 998 -23.20 158.23 TC 30 -23.20 158.20 1 25 -23.20 158.23 TC 35 12 142
1967 SP EA 09:00:00 TS -23.37 158.46 546 546 P_____P__PP_P_ SH231967 -23.37 158.37 30 -1 -23.37 158.52 998 -23.37 158.37 TC 30 -23.35 158.36 1 -23.37 158.37 TC 35 15 132
1967 SP EA 11:00:00 TS -23.71 158.89 998 bom 575 575 P_____O__PP_P_ SH231967 -23.72 158.70 30 -1 -23.70 159.30 998 -23.72 158.70 TC 30 -23.68 158.74 1 -23.72 158.70 TC 35 16 132
1967 SP EA 12:00:00 TS -23.89 159.09 589 589 O_____P__OP_O_ jtwc_sh SH231967 -23.90 158.90 30 -1 -23.86 159.48 998 -23.90 158.90 TC 30 -23.85 158.95 1 -23.90 158.90 TC 35 996 15 134
1967 SP EA 14:00:00 TS -24.24 159.50 998 bom 622 620 P_____O__PP_P_ SH231967 -24.25 159.37 30 -1 -24.20 159.70 998 -24.25 159.37 TC 30 -24.21 159.40 1 -24.25 159.37 TC 35 16 133
1967 SP EA 15:00:00 TS -24.42 159.73 628 612 P_____P__PP_P_ SH231967 -24.44 159.63 30 -1 -24.39 159.89 998 -24.44 159.63 TC 30 -24.40 159.63 1 -24.44 159.63 TC 35 17 132
1967 SP MM 17:00:00 TS -24.80 160.20 1000 bom 612 610 P_____O__PP_P_ SH231967 -24.81 160.15 30 -1 -24.80 160.30 1000 -24.81 160.15 TC 30 -24.79 160.11 1 -24.81 160.15 TC 35 17 133
1967 SP MM 18:00:00 TS -25.00 160.42 610 603 O_____P__OP_O_ jtwc_sh SH231967 -25.00 160.40 30 -1 -25.00 160.46 1000 -25.00 160.40 TC 30 -24.99 160.34 1 -25.00 160.40 TC 35 17 135
1967 SP MM 20:00:00 TS -25.39 160.83 1000 bom 612 605 P_____O__PO_P_ SH231967 -25.39 160.83 30 -1 -25.40 160.80 1000 -25.39 160.83 TC 30 -25.40 160.80 1 -25.39 160.83 TC 33 16 136
1967 SP MM 21:00:00 TS -25.59 161.04 615 608 P_____P__PP_P_ SH231967 -25.58 161.03 30 -1 -25.59 161.03 1000 -25.58 161.03 TC 30 -25.61 161.02 1 -25.58 161.03 TC 32 16 138
1967 SP MM 23:00:00 TS -26.00 161.45 1000 bom 625 619 P_____O__PP_P_ SH231967 -25.99 161.41 30 -1 -26.00 161.50 1000 -25.99 161.41 TC 30 -26.03 161.42 1 -25.99 161.41 TC 30 16 140
1967 SP MM 1967-03-17 00:00:00 TS -26.21 161.63 632 627 O_____P__OP_O_ jtwc_sh SH231967 -26.20 161.60 30 -1 -26.23 161.69 1000 -26.20 161.60 TC 30 -26.25 161.61 1 -26.20 161.60 TC 30 16 143
1967 SP MM 02:00:00 TS -26.65 161.98 1000 bom 651 651 P_____O__PP_P_ SH231967 -26.63 161.97 28 -1 -26.70 162.00 1000 -26.63 161.97 TC 28 -26.68 161.98 1 -26.63 161.97 TC 28 16 145
1967 SP MM 03:00:00 TS -26.87 162.14 671 665 P_____P__PP_P_ SH231967 -26.84 162.15 27 -1 -26.90 162.09 1000 -26.84 162.15 TC 27 -26.90 162.16 1 -26.84 162.15 TC 27 15 147
1967 SP MM 05:00:00 TS -27.30 162.45 1000 bom 689 683 P_____O__PP_P_ SH231967 -27.28 162.52 25 -1 -27.30 162.30 1000 -27.28 162.52 TC 25 -27.34 162.50 1 -27.28 162.52 TC 25 16 147
1967 SP MM 06:00:00 TS -27.52 162.61 695 695 O_____P__OP_O_ jtwc_sh SH231967 -27.50 162.70 25 -1 -27.52 162.49 1000 -27.50 162.70 TC 25 -27.56 162.67 1 -27.50 162.70 TC 25 17 145
1967 SP MM 08:00:00 NR -28.00 163.00 1000 bom 722 ______O___O___ SH231967 -1 -28.00 163.00 1000 TC -28.00 163.00 1 TC 18 145